createdAt,value
2022-08-30T00:02:05.256Z,97201.00
2022-08-30T00:04:31.886Z,97195.69
2022-08-30T00:06:58.810Z,97194.69
2022-08-30T00:09:25.449Z,97189.16
2022-08-30T00:11:52.186Z,97183.63
2022-08-30T00:14:20.434Z,97185.69
2022-08-30T00:16:47.108Z,97174.63
2022-08-30T00:19:13.910Z,97174.88
2022-08-30T00:21:40.776Z,97170.41
2022-08-30T00:24:07.459Z,97179.75
2022-08-30T00:26:34.254Z,97176.50
2022-08-30T00:29:00.916Z,97174.44
2022-08-30T00:31:27.595Z,97183.66
2022-08-30T00:33:54.235Z,97181.44
2022-08-30T00:36:21.244Z,97185.53
2022-08-30T00:38:47.861Z,97175.97
2022-08-30T00:41:14.603Z,97169.63
2022-08-30T00:43:41.243Z,97167.59
2022-08-30T00:46:10.329Z,97176.97
2022-08-30T00:48:43.157Z,97172.31
2022-08-30T00:51:13.144Z,97176.59
2022-08-30T00:53:44.563Z,97172.72
2022-08-30T00:56:12.018Z,97179.25
2022-08-30T00:58:42.382Z,97178.22
2022-08-30T01:01:10.020Z,97181.50
2022-08-30T01:03:38.397Z,97183.53
2022-08-30T01:06:07.595Z,97179.47
2022-08-30T01:08:35.360Z,97184.16
2022-08-30T01:11:03.856Z,97177.00
2022-08-30T01:13:31.484Z,97173.31
2022-08-30T01:16:00.105Z,97170.88
2022-08-30T01:18:27.379Z,97177.41
2022-08-30T01:21:10.394Z,97182.31
2022-08-30T01:23:40.430Z,97186.19
2022-08-30T01:26:07.622Z,97188.41
2022-08-30T01:28:34.744Z,97192.91
2022-08-30T01:31:01.989Z,97183.53
2022-08-30T01:33:29.123Z,97181.91
2022-08-30T01:36:01.190Z,97183.34
2022-08-30T01:38:34.064Z,97183.72
2022-08-30T01:41:10.399Z,97188.66
2022-08-30T01:43:37.017Z,97178.84
2022-08-30T01:46:04.546Z,97178.44
2022-08-30T01:48:31.874Z,97187.22
2022-08-30T01:50:58.997Z,97185.34
2022-08-30T01:53:25.632Z,97186.78
2022-08-30T01:55:52.359Z,97176.59
2022-08-30T01:58:18.953Z,97174.13
2022-08-30T02:00:45.588Z,97177.00
2022-08-30T02:03:12.365Z,97179.03
2022-08-30T02:05:39.165Z,97192.28
2022-08-30T02:08:05.763Z,97186.53
2022-08-30T02:10:32.588Z,97196.06
2022-08-30T02:12:59.766Z,97188.53
2022-08-30T02:15:26.622Z,97195.09
2022-08-30T02:17:53.998Z,97193.66
2022-08-30T02:20:20.795Z,97188.34
2022-08-30T02:22:49.314Z,97186.50
2022-08-30T02:25:20.406Z,97183.66
2022-08-30T02:27:47.729Z,97189.03
2022-08-30T02:30:14.466Z,97187.44
2022-08-30T02:32:41.620Z,97176.25
2022-08-30T02:35:08.657Z,97176.47
2022-08-30T02:37:35.455Z,97172.19
2022-08-30T02:40:02.270Z,97173.22
2022-08-30T02:42:28.979Z,97169.91
2022-08-30T02:44:56.830Z,97167.91
2022-08-30T02:47:23.450Z,97173.38
2022-08-30T02:49:50.028Z,97183.66
2022-08-30T02:52:16.774Z,97184.34
2022-08-30T02:54:43.514Z,97179.03
2022-08-30T02:57:20.186Z,97174.41
2022-08-30T02:59:48.070Z,97179.59
2022-08-30T03:02:15.578Z,97174.72
2022-08-30T03:04:44.969Z,97168.16
2022-08-30T03:07:12.802Z,97171.84
2022-08-30T03:09:39.726Z,97178.16
2022-08-30T03:12:07.832Z,97172.59
2022-08-30T03:14:36.349Z,97179.94
2022-08-30T03:17:04.903Z,97175.88
2022-08-30T03:19:31.573Z,97184.84
2022-08-30T03:21:58.211Z,97177.72
2022-08-30T03:24:25.906Z,97183.94
2022-08-30T03:26:52.817Z,97190.91
2022-08-30T03:29:19.434Z,97191.09
2022-08-30T03:31:53.613Z,97192.91
2022-08-30T03:34:21.928Z,97192.91
2022-08-30T03:36:49.478Z,97192.94
2022-08-30T03:39:16.205Z,97197.78
2022-08-30T03:41:42.882Z,97198.19
2022-08-30T03:44:09.554Z,97190.44
2022-08-30T03:46:37.562Z,97195.13
2022-08-30T03:49:05.424Z,97194.69
2022-08-30T03:51:33.903Z,97193.53
2022-08-30T03:54:01.754Z,97189.94
2022-08-30T03:56:28.815Z,97192.75
2022-08-30T03:58:55.409Z,97199.25
2022-08-30T04:01:22.190Z,97200.63
2022-08-30T04:03:48.857Z,97198.34
2022-08-30T04:06:15.712Z,97199.69
2022-08-30T04:08:43.322Z,97212.53
2022-08-30T04:11:14.976Z,97215.41
2022-08-30T04:13:41.566Z,97214.22
2022-08-30T04:16:08.248Z,97222.09
2022-08-30T04:18:36.586Z,97219.81
2022-08-30T04:21:04.234Z,97231.66
2022-08-30T04:23:30.868Z,97223.28
2022-08-30T04:25:57.495Z,97221.50
2022-08-30T04:28:24.410Z,97225.09
2022-08-30T04:30:51.109Z,97218.63
2022-08-30T04:33:18.025Z,97222.28
2022-08-30T04:35:46.850Z,97222.88
2022-08-30T04:38:14.252Z,97231.41
2022-08-30T04:40:42.525Z,97226.56
2022-08-30T04:43:09.842Z,97218.44
2022-08-30T04:45:38.363Z,97220.66
2022-08-30T04:48:05.172Z,97226.75
2022-08-30T04:50:32.361Z,97227.38
2022-08-30T04:52:59.650Z,97238.09
2022-08-30T04:55:26.292Z,97234.06
2022-08-30T04:57:53.328Z,97226.75
2022-08-30T05:00:23.359Z,97241.16
2022-08-30T05:02:50.069Z,97237.31
2022-08-30T05:05:35.922Z,97240.31
2022-08-30T05:08:02.801Z,97236.88
2022-08-30T05:10:29.753Z,97244.03
2022-08-30T05:12:56.589Z,97242.28
2022-08-30T05:15:23.179Z,97238.19
2022-08-30T05:17:49.964Z,97241.22
2022-08-30T05:20:17.312Z,97230.91
2022-08-30T05:22:53.664Z,97233.69
2022-08-30T05:25:24.006Z,97239.22
2022-08-30T05:27:51.103Z,97238.84
2022-08-30T05:30:18.964Z,97247.41
2022-08-30T05:32:46.101Z,97245.28
2022-08-30T05:35:15.138Z,97238.22
2022-08-30T05:37:42.195Z,97233.69
2022-08-30T05:40:10.896Z,97227.72
2022-08-30T05:42:38.554Z,97235.06
2022-08-30T05:45:06.110Z,97229.38
2022-08-30T05:47:32.711Z,97236.97
2022-08-30T05:49:59.428Z,97233.25
2022-08-30T05:52:26.043Z,97238.19
2022-08-30T05:54:55.740Z,97243.00
2022-08-30T05:57:22.816Z,97236.53
2022-08-30T05:59:49.417Z,97239.06
2022-08-30T06:02:16.114Z,97239.63
2022-08-30T06:04:42.730Z,97241.09
2022-08-30T06:07:12.929Z,97238.84
2022-08-30T06:09:42.221Z,97230.69
2022-08-30T06:12:08.912Z,97234.88
2022-08-30T06:14:35.618Z,97232.16
2022-08-30T06:17:02.193Z,97232.38
2022-08-30T06:19:28.862Z,97224.56
2022-08-30T06:21:55.682Z,97227.31
2022-08-30T06:24:35.779Z,97229.41
2022-08-30T06:27:10.063Z,97223.81
2022-08-30T06:29:36.783Z,97220.97
2022-08-30T06:32:03.781Z,97229.44
2022-08-30T06:34:30.769Z,97234.00
2022-08-30T06:36:57.322Z,97226.19
2022-08-30T06:39:24.066Z,97232.16
2022-08-30T06:41:50.765Z,97229.84
2022-08-30T06:44:17.733Z,97231.13
2022-08-30T06:46:44.437Z,97233.47
2022-08-30T06:49:11.162Z,97239.06
2022-08-30T06:51:39.749Z,97229.69
2022-08-30T06:54:10.622Z,97228.03
2022-08-30T06:56:40.199Z,97226.94
2022-08-30T06:59:09.530Z,97220.72
2022-08-30T07:01:36.280Z,97220.50
2022-08-30T07:04:03.333Z,97229.31
2022-08-30T07:06:32.363Z,97231.94
2022-08-30T07:08:59.007Z,97228.81
2022-08-30T07:11:36.941Z,97218.25
2022-08-30T07:14:04.848Z,97225.97
2022-08-30T07:16:31.807Z,97231.44
2022-08-30T07:18:58.851Z,97236.09
2022-08-30T07:21:28.850Z,97244.00
2022-08-30T07:23:58.364Z,97238.94
2022-08-30T07:26:33.511Z,97237.25
2022-08-30T07:29:00.846Z,97227.59
2022-08-30T07:31:27.598Z,97226.47
2022-08-30T07:33:54.584Z,97227.41
2022-08-30T07:36:22.105Z,97229.88
2022-08-30T07:38:52.744Z,97225.06
2022-08-30T07:41:26.330Z,97224.97
2022-08-30T07:43:53.787Z,97221.81
2022-08-30T07:46:21.797Z,97226.69
2022-08-30T07:48:48.722Z,97223.75
2022-08-30T07:51:22.230Z,97225.53
2022-08-30T07:53:49.024Z,97227.84
2022-08-30T07:56:16.437Z,97232.97
2022-08-30T07:58:43.252Z,97231.03
2022-08-30T08:01:12.299Z,97235.41
2022-08-30T08:03:40.991Z,97229.25
2022-08-30T08:06:09.280Z,97233.81
2022-08-30T08:08:36.437Z,97234.38
2022-08-30T08:11:08.697Z,97229.00
2022-08-30T08:13:44.657Z,97229.22
2022-08-30T08:16:22.221Z,97233.00
2022-08-30T08:18:48.878Z,97220.59
2022-08-30T08:21:15.634Z,97221.16
2022-08-30T08:23:42.635Z,97226.78
2022-08-30T08:26:09.361Z,97220.25
2022-08-30T08:28:36.007Z,97224.53
2022-08-30T08:31:03.609Z,97226.16
2022-08-30T08:33:30.641Z,97227.16
2022-08-30T08:35:57.237Z,97228.22
2022-08-30T08:38:23.810Z,97234.91
2022-08-30T08:41:11.116Z,97223.22
2022-08-30T08:43:38.211Z,97225.44
2022-08-30T08:46:30.037Z,97224.09
2022-08-30T08:49:04.051Z,97219.75
2022-08-30T08:51:54.401Z,97226.91
2022-08-30T08:54:33.051Z,97226.97
2022-08-30T08:57:00.920Z,97221.41
2022-08-30T08:59:27.936Z,97215.91
2022-08-30T09:02:00.894Z,97222.72
2022-08-30T09:04:33.897Z,97217.19
2022-08-30T09:07:05.616Z,97217.72
2022-08-30T09:09:40.788Z,97208.31
2022-08-30T09:12:10.310Z,97203.72
2022-08-30T09:14:45.976Z,97193.25
2022-08-30T09:17:15.859Z,97187.97
2022-08-30T09:19:42.465Z,97193.72
2022-08-30T09:22:25.945Z,97190.69
2022-08-30T09:24:54.623Z,97191.41
2022-08-30T09:27:27.118Z,97188.09
2022-08-30T09:30:18.804Z,97186.81
2022-08-30T09:32:57.267Z,97186.88
2022-08-30T09:35:37.034Z,97183.41
2022-08-30T09:38:07.023Z,97180.00
2022-08-30T09:40:38.703Z,97178.72
2022-08-30T09:43:17.341Z,97184.28
2022-08-30T09:45:49.677Z,97176.75
2022-08-30T09:48:40.497Z,97177.72
2022-08-30T09:51:10.108Z,97167.53
2022-08-30T09:54:19.007Z,97182.66
2022-08-30T09:56:54.864Z,97182.25
2022-08-30T09:59:39.732Z,97179.31
2022-08-30T10:02:28.358Z,97181.63
2022-08-30T10:05:16.363Z,97171.28
2022-08-30T10:08:01.914Z,97171.75
2022-08-30T10:10:45.641Z,97173.41
2022-08-30T10:13:28.716Z,97167.16
2022-08-30T10:16:05.051Z,97158.31
2022-08-30T10:18:56.030Z,97156.41
2022-08-30T10:21:40.951Z,97162.34
2022-08-30T10:24:20.777Z,97155.38
2022-08-30T10:26:57.463Z,97158.19
2022-08-30T10:29:30.693Z,97149.34
2022-08-30T10:32:03.414Z,97145.56
2022-08-30T10:34:40.001Z,97143.06
2022-08-30T10:37:37.348Z,97143.38
2022-08-30T10:40:32.089Z,97134.84
2022-08-30T10:43:02.803Z,97140.72
2022-08-30T10:45:32.440Z,97139.50
2022-08-30T10:48:36.662Z,97135.28
2022-08-30T10:51:14.318Z,97144.81
2022-08-30T10:53:47.986Z,97135.41
2022-08-30T10:56:21.276Z,97139.16
2022-08-30T10:58:48.962Z,97134.72
2022-08-30T11:01:51.389Z,97132.00
2022-08-30T11:04:32.956Z,97126.84
2022-08-30T11:07:18.133Z,97125.25
2022-08-30T11:10:20.174Z,97123.63
2022-08-30T11:13:09.333Z,97123.41
2022-08-30T11:15:53.336Z,97129.44
2022-08-30T11:18:21.523Z,97129.97
2022-08-30T11:20:53.414Z,97120.66
2022-08-30T11:23:36.345Z,97123.59
2022-08-30T11:26:08.004Z,97114.78
2022-08-30T11:28:41.753Z,97110.63
2022-08-30T11:31:09.635Z,97121.03
2022-08-30T11:33:42.685Z,97113.63
2022-08-30T11:36:37.851Z,97109.56
2022-08-30T11:39:44.510Z,97111.81
2022-08-30T11:42:29.298Z,97105.19
2022-08-30T11:45:24.704Z,97109.09
2022-08-30T11:47:52.126Z,97106.25
2022-08-30T11:50:40.394Z,97103.47
2022-08-30T11:53:06.956Z,97100.53
2022-08-30T11:55:46.162Z,97105.34
2022-08-30T11:58:43.976Z,97098.09
2022-08-30T12:01:40.767Z,97097.44
2022-08-30T12:04:16.634Z,97102.06
2022-08-30T12:07:09.614Z,97093.44
2022-08-30T12:09:36.203Z,97091.06
2022-08-30T12:12:32.534Z,97094.31
2022-08-30T12:15:00.342Z,97082.69
2022-08-30T12:18:06.706Z,97098.69
2022-08-30T12:20:47.907Z,97090.00
2022-08-30T12:23:44.426Z,97091.38
2022-08-30T12:26:13.274Z,97087.00
2022-08-30T12:28:42.167Z,97085.75
2022-08-30T12:31:22.944Z,97083.38
2022-08-30T12:34:01.253Z,97081.03
2022-08-30T12:36:49.662Z,97078.47
2022-08-30T12:39:20.509Z,97071.69
2022-08-30T12:41:47.135Z,97077.25
2022-08-30T12:44:25.567Z,97082.09
2022-08-30T12:46:59.566Z,97086.19
2022-08-30T12:49:29.714Z,97082.66
2022-08-30T12:52:15.911Z,97074.47
2022-08-30T12:54:44.107Z,97072.84
2022-08-30T12:57:34.210Z,97073.19
2022-08-30T13:00:01.846Z,97070.09
2022-08-30T13:02:45.104Z,97071.13
2022-08-30T13:05:42.944Z,97067.16
2022-08-30T13:08:35.831Z,97072.88
2022-08-30T13:11:08.270Z,97073.81
2022-08-30T13:13:37.639Z,97069.53
2022-08-30T13:16:20.677Z,97058.16
2022-08-30T13:18:53.357Z,97054.84
2022-08-30T13:21:22.658Z,97056.47
2022-08-30T13:23:51.559Z,97054.44
2022-08-30T13:26:23.256Z,97052.06
2022-08-30T13:28:55.240Z,97052.84
2022-08-30T13:31:22.622Z,97044.72
2022-08-30T13:33:52.992Z,97044.88
2022-08-30T13:36:28.198Z,97039.66
2022-08-30T13:38:55.476Z,97042.56
2022-08-30T13:41:22.246Z,97030.09
2022-08-30T13:46:36.613Z,97043.50
2022-08-30T13:49:42.880Z,97035.34
2022-08-30T13:52:16.333Z,97047.75
2022-08-30T13:54:40.825Z,97036.28
2022-08-30T13:57:07.462Z,97038.22
2022-08-30T13:59:34.394Z,97037.72
2022-08-30T14:02:10.696Z,97041.31
2022-08-30T14:04:38.423Z,97027.59
2022-08-30T14:07:13.926Z,97029.25
2022-08-30T14:09:46.697Z,97029.84
2022-08-30T14:12:13.459Z,97022.00
2022-08-30T14:14:43.278Z,97022.78
2022-08-30T14:17:11.191Z,97020.75
2022-08-30T14:19:39.287Z,97019.16
2022-08-30T14:22:05.885Z,97017.53
2022-08-30T14:24:32.478Z,97017.66
2022-08-30T14:26:59.125Z,97019.25
2022-08-30T14:29:29.785Z,97017.53
2022-08-30T14:31:59.674Z,97012.16
2022-08-30T14:34:26.607Z,97010.44
2022-08-30T14:36:53.309Z,97007.25
2022-08-30T14:39:21.376Z,97013.78
2022-08-30T14:41:53.507Z,97009.47
2022-08-30T14:44:22.872Z,97007.84
2022-08-30T14:46:51.054Z,97008.28
2022-08-30T14:49:19.152Z,97008.22
2022-08-30T14:51:48.484Z,96997.66
2022-08-30T14:54:17.710Z,96998.81
2022-08-30T14:56:45.271Z,97010.44
2022-08-30T14:59:12.191Z,97005.13
2022-08-30T15:01:41.507Z,97004.28
2022-08-30T15:04:09.765Z,97006.84
2022-08-30T15:06:38.545Z,97002.34
2022-08-30T15:09:09.099Z,97003.53
2022-08-30T15:11:38.312Z,97006.84
2022-08-30T15:14:06.453Z,96997.44
2022-08-30T15:16:36.041Z,96995.13
2022-08-30T15:19:05.031Z,96997.50
2022-08-30T15:21:37.744Z,97007.47
2022-08-30T15:24:06.114Z,97003.66
2022-08-30T15:26:33.298Z,97000.31
2022-08-30T15:28:59.903Z,96994.22
2022-08-30T15:31:28.753Z,96983.63
2022-08-30T15:33:55.471Z,96983.75
2022-08-30T15:36:23.948Z,96989.75
2022-08-30T15:38:55.474Z,96985.25
2022-08-30T15:41:23.696Z,96978.97
2022-08-30T15:43:52.853Z,96980.16
2022-08-30T15:46:23.685Z,96980.66
2022-08-30T15:49:00.535Z,96988.66
2022-08-30T15:51:27.283Z,96975.47
2022-08-30T15:53:54.426Z,96980.53
2022-08-30T15:56:21.235Z,96973.06
2022-08-30T15:58:48.412Z,96974.13
2022-08-30T16:01:16.290Z,96967.44
2022-08-30T16:03:46.803Z,96962.56
2022-08-30T16:06:28.258Z,96973.59
2022-08-30T16:08:55.760Z,96971.53
2022-08-30T16:11:24.868Z,96965.84
2022-08-30T16:13:53.605Z,96973.28
2022-08-30T16:16:21.484Z,96976.22
2022-08-30T16:18:53.976Z,96965.38
2022-08-30T16:21:25.485Z,96969.84
2022-08-30T16:23:55.158Z,96964.03
2022-08-30T16:26:22.276Z,96965.91
2022-08-30T16:28:49.297Z,96963.16
2022-08-30T16:31:18.015Z,96964.28
2022-08-30T16:33:45.321Z,96969.97
2022-08-30T16:36:12.795Z,96969.78
2022-08-30T16:38:40.874Z,96962.78
2022-08-30T16:41:11.182Z,96962.00
2022-08-30T16:43:39.667Z,96959.66
2022-08-30T16:46:12.396Z,96964.25
2022-08-30T16:48:41.130Z,96961.81
2022-08-30T16:51:12.594Z,96959.66
2022-08-30T16:53:39.863Z,96956.75
2022-08-30T16:56:13.570Z,96957.53
2022-08-30T16:58:41.101Z,96955.38
2022-08-30T17:01:08.554Z,96959.69
2022-08-30T17:03:37.645Z,96966.16
2022-08-30T17:06:05.816Z,96962.63
2022-08-30T17:08:33.342Z,96957.19
2022-08-30T17:10:59.924Z,96970.63
2022-08-30T17:13:27.010Z,96966.06
2022-08-30T17:15:53.693Z,96969.00
2022-08-30T17:18:20.545Z,96971.38
2022-08-30T17:20:47.819Z,96970.00
2022-08-30T17:23:14.909Z,96970.31
2022-08-30T17:25:43.276Z,96968.13
2022-08-30T17:28:10.750Z,96965.91
2022-08-30T17:30:37.690Z,96982.03
2022-08-30T17:33:04.570Z,96985.50
2022-08-30T17:35:31.213Z,96991.59
2022-08-30T17:37:58.031Z,96986.28
2022-08-30T17:40:24.692Z,96979.41
2022-08-30T17:42:51.502Z,96989.63
2022-08-30T17:45:18.790Z,96992.56
2022-08-30T17:47:45.858Z,96991.78
2022-08-30T17:50:14.272Z,96994.06
2022-08-30T17:52:42.166Z,97000.25
2022-08-30T17:55:10.027Z,97008.00
2022-08-30T17:57:37.176Z,97011.13
2022-08-30T18:00:07.768Z,97011.31
2022-08-30T18:02:34.801Z,97018.72
2022-08-30T18:05:04.835Z,97019.22
2022-08-30T18:07:31.578Z,97016.91
2022-08-30T18:09:59.422Z,97025.72
2022-08-30T18:12:26.165Z,97032.81
2022-08-30T18:14:54.035Z,97043.22
2022-08-30T18:17:21.115Z,97045.53
2022-08-30T18:19:47.932Z,97045.78
2022-08-30T18:22:16.490Z,97045.22
2022-08-30T18:24:44.926Z,97049.81
2022-08-30T18:27:12.003Z,97047.03
2022-08-30T18:29:40.560Z,97055.66
2022-08-30T18:32:09.198Z,97051.81
2022-08-30T18:34:35.994Z,97058.22
2022-08-30T18:37:02.776Z,97057.72
2022-08-30T18:39:34.602Z,97060.34
2022-08-30T18:42:02.105Z,97060.13
2022-08-30T18:44:33.421Z,97066.72
2022-08-30T18:47:03.637Z,97068.69
2022-08-30T18:49:32.583Z,97064.22
2022-08-30T18:52:00.479Z,97066.59
2022-08-30T18:54:27.749Z,97073.09
2022-08-30T18:56:54.539Z,97070.81
2022-08-30T18:59:21.544Z,97071.69
2022-08-30T19:01:49.118Z,97072.91
2022-08-30T19:04:22.178Z,97075.84
2022-08-30T19:06:55.435Z,97062.19
2022-08-30T19:09:23.438Z,97079.47
2022-08-30T19:11:50.021Z,97083.34
2022-08-30T19:14:19.125Z,97075.56
2022-08-30T19:16:45.781Z,97079.22
2022-08-30T19:19:13.022Z,97088.53
2022-08-30T19:21:40.187Z,97084.72
2022-08-30T19:24:07.906Z,97085.19
2022-08-30T19:26:35.904Z,97090.16
2022-08-30T19:29:04.994Z,97085.56
2022-08-30T19:31:31.893Z,97092.69
2022-08-30T19:33:58.722Z,97093.88
2022-08-30T19:36:25.519Z,97096.78
2022-08-30T19:38:52.110Z,97101.34
2022-08-30T19:41:22.396Z,97105.44
2022-08-30T19:43:49.608Z,97102.88
2022-08-30T19:46:16.341Z,97104.72
2022-08-30T19:48:43.309Z,97101.16
2022-08-30T19:51:15.177Z,97111.75
2022-08-30T19:53:43.055Z,97109.06
2022-08-30T19:56:09.898Z,97116.63
2022-08-30T19:58:36.502Z,97117.47
2022-08-30T20:01:10.557Z,97120.47
2022-08-30T20:03:39.791Z,97118.88
2022-08-30T20:06:07.890Z,97111.09
2022-08-30T20:08:36.111Z,97112.50
2022-08-30T20:11:03.020Z,97111.66
2022-08-30T20:13:29.651Z,97114.44
2022-08-30T20:16:00.521Z,97118.06
2022-08-30T20:18:27.232Z,97127.25
2022-08-30T20:20:55.309Z,97117.38
2022-08-30T20:23:25.681Z,97123.06
2022-08-30T20:25:54.777Z,97118.06
2022-08-30T20:28:21.950Z,97118.88
2022-08-30T20:30:49.628Z,97114.94
2022-08-30T20:33:17.377Z,97119.69
2022-08-30T20:35:48.754Z,97122.72
2022-08-30T20:38:21.647Z,97114.00
2022-08-30T20:40:51.263Z,97113.28
2022-08-30T20:43:20.946Z,97110.94
2022-08-30T20:45:48.466Z,97121.63
2022-08-30T20:48:15.702Z,97109.53
2022-08-30T20:50:43.314Z,97109.09
2022-08-30T20:53:10.313Z,97107.91
2022-08-30T20:55:47.450Z,97109.66
2022-08-30T20:58:14.503Z,97107.91
2022-08-30T21:00:45.622Z,97102.00
2022-08-30T21:03:27.496Z,97118.44
2022-08-30T21:05:55.450Z,97114.38
2022-08-30T21:08:22.139Z,97118.91
2022-08-30T21:10:48.821Z,97122.13
2022-08-30T21:13:15.779Z,97122.72
2022-08-30T21:15:46.052Z,97123.06
2022-08-30T21:18:14.644Z,97118.28
2022-08-30T21:20:41.692Z,97114.69
2022-08-30T21:23:08.393Z,97116.06
2022-08-30T21:25:39.153Z,97123.38
2022-08-30T21:28:07.044Z,97114.19
2022-08-30T21:30:34.882Z,97123.97
2022-08-30T21:33:03.816Z,97113.75
2022-08-30T21:35:48.633Z,97119.97
2022-08-30T21:38:15.961Z,97126.22
2022-08-30T21:40:43.198Z,97131.84
2022-08-30T21:43:10.827Z,97133.69
2022-08-30T21:45:42.354Z,97131.03
2022-08-30T21:48:10.962Z,97131.97
2022-08-30T21:50:42.687Z,97131.38
2022-08-30T21:53:10.648Z,97137.25
2022-08-30T21:55:37.460Z,97139.63
2022-08-30T21:58:04.734Z,97133.91
2022-08-30T22:00:33.649Z,97134.31
2022-08-30T22:03:00.491Z,97134.31
2022-08-30T22:05:27.385Z,97144.13
2022-08-30T22:07:54.103Z,97140.00
2022-08-30T22:10:21.224Z,97140.88
2022-08-30T22:12:47.946Z,97146.88
2022-08-30T22:15:15.015Z,97147.69
2022-08-30T22:17:43.245Z,97142.03
2022-08-30T22:20:10.378Z,97149.50
2022-08-30T22:22:37.962Z,97142.72
2022-08-30T22:25:04.934Z,97138.94
2022-08-30T22:27:31.662Z,97137.09
2022-08-30T22:29:58.254Z,97133.09
2022-08-30T22:32:24.839Z,97127.63
2022-08-30T22:34:51.642Z,97132.94
2022-08-30T22:37:18.290Z,97126.38
2022-08-30T22:39:44.968Z,97131.06
2022-08-30T22:42:11.630Z,97128.09
2022-08-30T22:44:40.936Z,97131.69
2022-08-30T22:47:08.725Z,97138.25
2022-08-30T22:49:35.355Z,97140.81
2022-08-30T22:52:01.944Z,97136.44
2022-08-30T22:54:28.656Z,97135.91
2022-08-30T22:56:55.232Z,97131.94
2022-08-30T22:59:24.372Z,97125.47
2022-08-30T23:02:00.324Z,97129.63
2022-08-30T23:04:27.132Z,97136.97
2022-08-30T23:06:53.887Z,97138.22
2022-08-30T23:09:20.513Z,97137.78
2022-08-30T23:11:47.387Z,97130.53
2022-08-30T23:14:14.239Z,97136.84
2022-08-30T23:16:40.885Z,97134.97
2022-08-30T23:19:07.535Z,97135.09
2022-08-30T23:21:34.124Z,97139.63
2022-08-30T23:24:19.325Z,97139.66
2022-08-30T23:27:05.113Z,97144.25
2022-08-30T23:29:51.576Z,97149.94
2022-08-30T23:32:37.594Z,97141.38
2022-08-30T23:35:29.154Z,97144.59
2022-08-30T23:38:18.538Z,97144.22
2022-08-30T23:41:03.991Z,97144.25
2022-08-30T23:43:49.393Z,97134.28
2022-08-30T23:46:34.741Z,97135.91
2022-08-30T23:49:20.517Z,97132.66
2022-08-30T23:52:05.647Z,97128.03
2022-08-30T23:54:50.846Z,97120.66
2022-08-30T23:57:36.025Z,97119.44
